createdAt,value
2017-11-19T00:00:34.017Z,4.04
2017-11-19T00:01:40.261Z,4.04
2017-11-19T00:02:45.989Z,4.03
2017-11-19T00:03:51.806Z,4.03
2017-11-19T00:04:58.270Z,4.03
2017-11-19T00:06:04.197Z,4.03
2017-11-19T00:07:10.233Z,4.04
2017-11-19T00:08:16.127Z,4.03
2017-11-19T00:09:22.316Z,4.04
2017-11-19T00:10:29.096Z,4.03
2017-11-19T00:11:34.937Z,4.03
2017-11-19T00:12:40.821Z,4.03
2017-11-19T00:13:47.375Z,4.04
2017-11-19T00:14:52.969Z,4.03
2017-11-19T00:15:59.668Z,4.03
2017-11-19T00:17:05.268Z,4.03
2017-11-19T00:18:11.477Z,4.03
2017-11-19T00:19:17.628Z,4.03
2017-11-19T00:20:23.681Z,4.03
2017-11-19T00:21:29.834Z,4.03
2017-11-19T00:22:36.074Z,4.03
2017-11-19T00:23:42.117Z,4.03
2017-11-19T00:24:48.852Z,4.03
2017-11-19T00:25:54.419Z,4.03
2017-11-19T00:27:00.575Z,4.03
2017-11-19T00:28:06.681Z,4.03
2017-11-19T00:29:13.286Z,4.03
2017-11-19T00:30:19.019Z,4.03
2017-11-19T00:31:25.169Z,4.03
2017-11-19T00:32:31.683Z,4.03
2017-11-19T00:33:38.037Z,4.03
2017-11-19T00:34:43.470Z,4.03
2017-11-19T00:35:50.263Z,4.03
2017-11-19T00:36:56.436Z,4.03
2017-11-19T00:38:01.930Z,4.03
2017-11-19T00:39:08.627Z,4.03
2017-11-19T00:40:14.181Z,4.03
2017-11-19T00:41:20.331Z,4.03
2017-11-19T00:42:26.998Z,4.03
2017-11-19T00:43:32.815Z,4.03
2017-11-19T00:44:38.859Z,4.03
2017-11-19T00:45:45.458Z,4.03
2017-11-19T00:46:51.606Z,4.03
2017-11-19T00:47:57.236Z,4.03
2017-11-19T00:49:03.596Z,4.03
2017-11-19T00:50:09.448Z,4.03
2017-11-19T00:51:15.593Z,4.03
2017-11-19T00:52:21.754Z,4.03
2017-11-19T00:53:28.437Z,4.03
2017-11-19T00:54:34.572Z,4.03
2017-11-19T00:55:40.151Z,4.03
2017-11-19T00:56:46.421Z,4.03
2017-11-19T00:57:52.430Z,4.03
2017-11-19T00:58:58.664Z,4.03
2017-11-19T01:00:05.897Z,4.03
2017-11-19T01:01:11.459Z,4.03
2017-11-19T01:02:17.109Z,4.03
2017-11-19T01:03:23.176Z,4.03
2017-11-19T01:04:29.334Z,4.03
2017-11-19T01:05:35.967Z,4.03
2017-11-19T01:06:41.676Z,4.03
2017-11-19T01:07:47.732Z,4.03
2017-11-19T01:08:53.906Z,4.03
2017-11-19T01:10:00.133Z,4.03
2017-11-19T01:11:06.728Z,4.03
2017-11-19T01:12:12.940Z,4.03
2017-11-19T01:13:18.529Z,4.03
2017-11-19T01:14:24.957Z,4.03
2017-11-19T01:15:30.817Z,4.03
2017-11-19T01:16:36.979Z,4.03
2017-11-19T01:17:43.021Z,4.03
2017-11-19T01:18:49.227Z,4.03
2017-11-19T01:19:55.343Z,4.03
2017-11-19T01:21:01.439Z,4.03
2017-11-19T01:22:07.691Z,4.03
2017-11-19T01:23:13.839Z,4.03
2017-11-19T01:24:19.947Z,4.03
2017-11-19T01:25:26.072Z,4.03
2017-11-19T01:26:32.235Z,4.03
2017-11-19T01:27:38.375Z,4.03
2017-11-19T01:28:44.701Z,4.03
2017-11-19T01:29:51.116Z,4.03
2017-11-19T01:30:56.761Z,4.03
2017-11-19T01:32:02.846Z,4.03
2017-11-19T01:33:08.989Z,4.03
2017-11-19T01:34:15.693Z,4.03
2017-11-19T01:35:21.298Z,4.03
2017-11-19T01:36:27.411Z,4.03
2017-11-19T01:37:33.642Z,4.03
2017-11-19T01:38:39.787Z,4.03
2017-11-19T01:39:45.953Z,4.03
2017-11-19T01:40:51.982Z,4.03
2017-11-19T01:41:58.653Z,4.03
2017-11-19T01:43:04.358Z,4.03
2017-11-19T01:44:10.399Z,4.03
2017-11-19T01:45:17.362Z,4.03
2017-11-19T01:46:22.911Z,4.03
2017-11-19T01:47:28.990Z,4.03
2017-11-19T01:48:35.115Z,4.03
2017-11-19T01:49:41.095Z,4.03
2017-11-19T01:50:47.784Z,4.03
2017-11-19T01:51:53.396Z,4.03
2017-11-19T01:52:59.547Z,4.03
2017-11-19T01:54:05.697Z,4.03
2017-11-19T01:55:12.221Z,4.03
2017-11-19T01:56:17.995Z,4.03
2017-11-19T01:57:24.149Z,4.03
2017-11-19T01:58:30.194Z,4.03
2017-11-19T01:59:36.858Z,4.03
2017-11-19T02:00:43.268Z,4.03
2017-11-19T02:01:48.625Z,4.03
2017-11-19T02:02:54.803Z,4.03
2017-11-19T02:04:01.030Z,4.03
2017-11-19T02:05:07.019Z,4.03
2017-11-19T02:06:13.683Z,4.03
2017-11-19T02:07:19.309Z,4.03
2017-11-19T02:08:25.981Z,4.03
2017-11-19T02:09:31.608Z,4.03
2017-11-19T02:10:37.733Z,4.03
2017-11-19T02:11:43.849Z,4.03
2017-11-19T02:12:50.019Z,4.03
2017-11-19T02:13:56.145Z,4.03
2017-11-19T02:15:02.261Z,4.03
2017-11-19T02:16:08.597Z,4.03
2017-11-19T02:17:14.537Z,4.03
2017-11-19T02:18:20.786Z,4.03
2017-11-19T02:19:26.876Z,4.03
2017-11-19T02:20:33.026Z,4.03
2017-11-19T02:21:39.085Z,4.03
2017-11-19T02:22:45.906Z,4.03
2017-11-19T02:23:51.973Z,4.03
2017-11-19T02:24:57.522Z,4.03
2017-11-19T02:26:04.468Z,4.03
2017-11-19T02:27:09.781Z,4.03
2017-11-19T02:28:16.043Z,4.03
2017-11-19T02:29:22.055Z,4.03
2017-11-19T02:30:28.188Z,4.03
2017-11-19T02:31:35.018Z,4.03
2017-11-19T02:32:41.060Z,4.03
2017-11-19T02:33:46.614Z,4.03
2017-11-19T02:34:53.362Z,4.03
2017-11-19T02:35:59.854Z,4.03
2017-11-19T02:37:05.098Z,4.03
2017-11-19T02:38:11.655Z,4.03
2017-11-19T02:39:17.298Z,4.03
2017-11-19T02:40:23.438Z,4.03
2017-11-19T02:41:29.599Z,4.03
2017-11-19T02:42:35.733Z,4.03
2017-11-19T02:43:41.810Z,4.03
2017-11-19T02:44:47.945Z,4.03
2017-11-19T02:45:54.193Z,4.03
2017-11-19T02:47:00.222Z,4.03
2017-11-19T02:48:06.350Z,4.03
2017-11-19T02:49:12.519Z,4.03
2017-11-19T02:50:18.700Z,4.03
2017-11-19T02:51:24.859Z,4.03
2017-11-19T02:52:31.532Z,4.03
2017-11-19T02:53:37.040Z,4.03
2017-11-19T02:54:43.281Z,4.03
2017-11-19T02:55:49.306Z,4.03
2017-11-19T02:56:55.522Z,4.03
2017-11-19T02:58:01.574Z,4.03
2017-11-19T02:59:08.383Z,4.03
2017-11-19T03:00:13.949Z,4.03
2017-11-19T03:01:20.008Z,4.03
2017-11-19T03:02:26.295Z,4.03
2017-11-19T03:03:32.375Z,4.03
2017-11-19T03:04:38.526Z,4.03
2017-11-19T03:05:44.686Z,4.03
2017-11-19T03:06:51.294Z,4.03
2017-11-19T03:07:56.908Z,4.03
2017-11-19T03:09:02.995Z,4.03
2017-11-19T03:10:09.117Z,4.03
2017-11-19T03:11:15.260Z,4.03
2017-11-19T03:12:21.418Z,4.03
2017-11-19T03:13:27.565Z,4.03
2017-11-19T03:14:34.223Z,4.03
2017-11-19T03:15:39.931Z,4.03
2017-11-19T03:16:45.970Z,4.03
2017-11-19T03:17:52.268Z,4.03
2017-11-19T03:18:58.825Z,4.03
2017-11-19T03:20:04.979Z,4.03
2017-11-19T03:21:10.615Z,4.03
2017-11-19T03:22:16.786Z,4.03
2017-11-19T03:23:22.821Z,4.03
2017-11-19T03:24:29.044Z,4.03
2017-11-19T03:25:35.270Z,4.03
2017-11-19T03:26:41.233Z,4.03
2017-11-19T03:27:47.679Z,4.03
2017-11-19T03:28:53.579Z,4.03
2017-11-19T03:29:59.662Z,4.03
2017-11-19T03:31:05.947Z,4.03
2017-11-19T03:32:12.022Z,4.03
2017-11-19T03:33:18.104Z,4.03
2017-11-19T03:34:24.322Z,4.03
2017-11-19T03:35:30.373Z,4.03
2017-11-19T03:36:36.525Z,4.03
2017-11-19T03:37:42.698Z,4.03
2017-11-19T03:38:48.792Z,4.03
2017-11-19T03:39:54.977Z,4.03
2017-11-19T03:41:01.133Z,4.02
2017-11-19T03:42:07.287Z,4.03
2017-11-19T03:43:13.491Z,4.03
2017-11-19T03:44:19.520Z,4.02
2017-11-19T03:45:25.638Z,4.03
2017-11-19T03:46:31.794Z,4.03
2017-11-19T03:47:37.935Z,4.03
2017-11-19T03:48:44.620Z,4.03
2017-11-19T03:49:50.200Z,4.03
2017-11-19T03:50:56.985Z,4.03
2017-11-19T03:52:02.541Z,4.03
2017-11-19T03:53:09.226Z,4.03
2017-11-19T03:54:14.844Z,4.03
2017-11-19T03:55:21.581Z,4.03
2017-11-19T03:56:27.672Z,4.03
2017-11-19T03:57:33.400Z,4.03
2017-11-19T03:58:39.391Z,4.03
2017-11-19T03:59:45.583Z,4.03
2017-11-19T04:00:51.606Z,4.03
2017-11-19T04:01:57.815Z,4.03
2017-11-19T04:03:03.957Z,4.03
2017-11-19T04:04:10.041Z,4.02
2017-11-19T04:05:16.155Z,4.03
2017-11-19T04:06:22.301Z,4.03
2017-11-19T04:07:28.523Z,4.02
2017-11-19T04:08:34.600Z,4.03
2017-11-19T04:09:41.273Z,4.02
2017-11-19T04:10:46.855Z,4.02
2017-11-19T04:11:53.073Z,4.03
2017-11-19T04:12:59.212Z,4.02
2017-11-19T04:14:05.277Z,4.02
2017-11-19T04:15:11.492Z,4.03
2017-11-19T04:16:17.640Z,4.03
2017-11-19T04:17:23.654Z,4.03
2017-11-19T04:18:29.888Z,4.03
2017-11-19T04:19:36.100Z,4.03
2017-11-19T04:20:42.582Z,4.03
2017-11-19T04:21:48.213Z,4.03
2017-11-19T04:22:54.458Z,4.02
2017-11-19T04:24:00.531Z,4.02
2017-11-19T04:25:06.579Z,4.03
2017-11-19T04:26:12.719Z,4.03
2017-11-19T04:27:18.819Z,4.02
2017-11-19T04:28:24.942Z,4.03
2017-11-19T04:29:31.372Z,4.02
2017-11-19T04:30:37.738Z,4.03
2017-11-19T04:31:43.334Z,4.02
2017-11-19T04:32:49.594Z,4.03
2017-11-19T04:33:55.639Z,4.02
2017-11-19T04:35:01.688Z,4.02
2017-11-19T04:36:07.960Z,4.02
2017-11-19T04:37:14.097Z,4.03
2017-11-19T04:38:20.020Z,4.02
2017-11-19T04:39:26.239Z,4.02
2017-11-19T04:40:32.865Z,4.02
2017-11-19T04:41:38.376Z,4.03
2017-11-19T04:42:45.575Z,4.03
2017-11-19T04:43:50.597Z,4.02
2017-11-19T04:44:56.781Z,4.03
2017-11-19T04:46:03.408Z,4.02
2017-11-19T04:47:09.049Z,4.02
2017-11-19T04:48:15.161Z,4.02
2017-11-19T04:49:21.703Z,4.02
2017-11-19T04:50:27.274Z,4.02
2017-11-19T04:51:33.480Z,4.02
2017-11-19T04:52:39.489Z,4.03
2017-11-19T04:53:45.764Z,4.02
2017-11-19T04:54:51.705Z,4.03
2017-11-19T04:55:57.887Z,4.02
2017-11-19T04:57:04.451Z,4.02
2017-11-19T04:58:10.153Z,4.02
2017-11-19T04:59:16.123Z,4.03
2017-11-19T05:00:22.291Z,4.03
2017-11-19T05:01:28.297Z,4.02
2017-11-19T05:02:34.507Z,4.02
2017-11-19T05:03:40.525Z,4.02
2017-11-19T05:04:46.858Z,4.02
2017-11-19T05:05:52.934Z,4.02
2017-11-19T05:06:58.815Z,4.02
2017-11-19T05:08:05.009Z,4.02
2017-11-19T05:09:11.002Z,4.02
2017-11-19T05:10:17.116Z,4.02
2017-11-19T05:11:23.289Z,4.02
2017-11-19T05:12:29.297Z,4.02
2017-11-19T05:13:35.382Z,4.02
2017-11-19T05:14:41.490Z,4.02
2017-11-19T05:15:47.695Z,4.02
2017-11-19T05:16:53.799Z,4.02
2017-11-19T05:17:59.789Z,4.02
2017-11-19T05:19:06.849Z,4.02
2017-11-19T05:20:12.128Z,4.02
2017-11-19T05:21:18.200Z,4.02
2017-11-19T05:22:24.132Z,4.02
2017-11-19T05:23:30.399Z,4.02
2017-11-19T05:24:36.334Z,4.02
2017-11-19T05:25:42.542Z,4.02
2017-11-19T05:26:48.584Z,4.02
2017-11-19T05:27:54.603Z,4.02
2017-11-19T05:29:00.773Z,4.02
2017-11-19T05:30:06.895Z,4.02
2017-11-19T05:31:13.058Z,4.02
2017-11-19T05:32:19.035Z,4.03
2017-11-19T05:33:25.732Z,4.02
2017-11-19T05:34:31.220Z,4.02
2017-11-19T05:35:37.291Z,4.02
2017-11-19T05:36:43.337Z,4.02
2017-11-19T05:37:49.403Z,4.02
2017-11-19T05:38:56.108Z,4.02
2017-11-19T05:40:01.675Z,4.02
2017-11-19T05:41:07.732Z,4.02
2017-11-19T05:42:13.881Z,4.02
2017-11-19T05:43:19.996Z,4.02
2017-11-19T05:44:25.949Z,4.02
2017-11-19T05:45:32.119Z,4.02
2017-11-19T05:46:38.152Z,4.02
2017-11-19T05:47:44.398Z,4.02
2017-11-19T05:48:50.377Z,4.02
2017-11-19T05:49:56.500Z,4.02
2017-11-19T05:51:02.491Z,4.02
2017-11-19T05:52:08.577Z,4.02
2017-11-19T05:53:14.681Z,4.02
2017-11-19T05:54:20.822Z,4.02
2017-11-19T05:55:26.940Z,4.02
2017-11-19T05:56:33.108Z,4.02
2017-11-19T05:57:39.004Z,4.02
2017-11-19T05:58:45.120Z,4.02
2017-11-19T05:59:51.274Z,4.02
2017-11-19T06:00:57.404Z,4.02
2017-11-19T06:02:03.545Z,4.02
2017-11-19T06:03:09.514Z,4.02
2017-11-19T06:04:15.548Z,4.02
2017-11-19T06:05:21.749Z,4.02
2017-11-19T06:06:28.019Z,4.02
2017-11-19T06:07:33.797Z,4.02
2017-11-19T06:08:39.878Z,4.02
2017-11-19T06:09:46.017Z,4.02
2017-11-19T06:10:52.101Z,4.02
2017-11-19T06:11:58.468Z,4.02
2017-11-19T06:13:04.226Z,4.02
2017-11-19T06:14:10.474Z,4.02
2017-11-19T06:15:16.550Z,4.02
2017-11-19T06:16:22.508Z,4.02
2017-11-19T06:17:28.712Z,4.02
2017-11-19T06:18:34.689Z,4.02
2017-11-19T06:19:40.772Z,4.02
2017-11-19T06:20:46.880Z,4.02
2017-11-19T06:21:53.501Z,4.02
2017-11-19T06:22:59.111Z,4.02
2017-11-19T06:24:05.137Z,4.02
2017-11-19T06:25:11.387Z,4.02
2017-11-19T06:26:17.440Z,4.02
2017-11-19T06:27:23.446Z,4.02
2017-11-19T06:28:29.633Z,4.02
2017-11-19T06:29:35.682Z,4.02
2017-11-19T06:30:41.857Z,4.02
2017-11-19T06:31:48.063Z,4.02
2017-11-19T06:32:53.888Z,4.02
2017-11-19T06:33:59.971Z,4.02
2017-11-19T06:35:06.053Z,4.02
2017-11-19T06:36:12.216Z,4.02
2017-11-19T06:37:18.516Z,4.02
2017-11-19T06:38:24.420Z,4.02
2017-11-19T06:39:30.415Z,4.02
2017-11-19T06:40:36.573Z,4.02
2017-11-19T06:41:42.657Z,4.02
2017-11-19T06:42:48.734Z,4.02
2017-11-19T06:43:54.772Z,4.02
2017-11-19T06:45:00.905Z,4.02
2017-11-19T06:46:06.966Z,4.02
2017-11-19T06:47:13.652Z,4.02
2017-11-19T06:48:19.153Z,4.02
2017-11-19T06:49:25.230Z,4.02
2017-11-19T06:50:31.361Z,4.02
2017-11-19T06:51:37.411Z,4.02
2017-11-19T06:52:43.518Z,4.02
2017-11-19T06:53:49.615Z,4.02
2017-11-19T06:54:55.753Z,4.02
2017-11-19T06:56:01.779Z,4.02
2017-11-19T06:57:08.029Z,4.02
2017-11-19T06:58:14.259Z,4.02
2017-11-19T06:59:20.127Z,4.02
2017-11-19T07:00:26.210Z,4.02
2017-11-19T07:01:32.327Z,4.02
2017-11-19T07:02:38.335Z,4.02
2017-11-19T07:03:44.399Z,4.02
2017-11-19T07:04:50.498Z,4.02
2017-11-19T07:05:56.736Z,4.02
2017-11-19T07:07:02.761Z,4.02
2017-11-19T07:08:09.287Z,4.02
2017-11-19T07:09:14.901Z,4.02
2017-11-19T07:10:20.951Z,4.02
2017-11-19T07:11:27.172Z,4.02
2017-11-19T07:12:33.166Z,4.02
2017-11-19T07:13:39.454Z,4.02
2017-11-19T07:14:46.374Z,4.02
2017-11-19T07:15:51.410Z,4.02
2017-11-19T07:16:57.620Z,4.02
2017-11-19T07:18:03.894Z,4.02
2017-11-19T07:19:09.752Z,4.02
2017-11-19T07:20:15.800Z,4.02
2017-11-19T07:21:21.847Z,4.02
2017-11-19T07:22:28.019Z,4.02
2017-11-19T07:23:34.240Z,4.02
2017-11-19T07:24:40.200Z,4.02
2017-11-19T07:25:46.207Z,4.02
2017-11-19T07:26:52.479Z,4.02
2017-11-19T07:27:59.031Z,4.02
2017-11-19T07:29:04.523Z,4.02
2017-11-19T07:30:10.723Z,4.02
2017-11-19T07:31:17.211Z,4.02
2017-11-19T07:32:22.920Z,4.02
2017-11-19T07:33:29.015Z,4.02
2017-11-19T07:34:35.048Z,4.02
2017-11-19T07:35:41.099Z,4.02
2017-11-19T07:36:47.770Z,4.02
2017-11-19T07:37:53.334Z,4.02
2017-11-19T07:38:59.478Z,4.02
2017-11-19T07:40:05.628Z,4.02
2017-11-19T07:41:12.266Z,4.02
2017-11-19T07:42:17.817Z,4.02
2017-11-19T07:43:24.036Z,4.02
2017-11-19T07:44:30.009Z,4.02
2017-11-19T07:45:36.063Z,4.02
2017-11-19T07:46:42.275Z,4.02
2017-11-19T07:47:48.324Z,4.02
2017-11-19T07:48:54.419Z,4.02
2017-11-19T07:50:00.642Z,4.02
2017-11-19T07:51:07.177Z,4.02
2017-11-19T07:52:13.359Z,4.02
2017-11-19T07:53:18.774Z,4.02
2017-11-19T07:54:24.901Z,4.03
2017-11-19T07:55:31.009Z,4.03
2017-11-19T07:56:37.664Z,4.02
2017-11-19T07:57:43.382Z,4.02
2017-11-19T07:58:49.603Z,4.02
2017-11-19T07:59:55.575Z,4.02
2017-11-19T08:01:01.548Z,4.03
2017-11-19T08:02:07.776Z,4.02
2017-11-19T08:03:13.851Z,4.02
2017-11-19T08:04:20.112Z,4.02
2017-11-19T08:05:26.636Z,4.03
2017-11-19T08:06:32.204Z,4.03
2017-11-19T08:07:38.224Z,4.02
2017-11-19T08:08:44.343Z,4.03
2017-11-19T08:09:50.485Z,4.03
2017-11-19T08:10:56.608Z,4.02
2017-11-19T08:12:02.834Z,4.02
2017-11-19T08:13:08.980Z,4.03
2017-11-19T08:14:14.993Z,4.03
2017-11-19T08:15:21.696Z,4.02
2017-11-19T08:16:27.258Z,4.03
2017-11-19T08:17:33.345Z,4.03
2017-11-19T08:18:39.470Z,4.03
2017-11-19T08:19:46.374Z,4.03
2017-11-19T08:20:51.675Z,4.03
2017-11-19T08:21:57.805Z,4.03
2017-11-19T08:23:04.471Z,4.03
2017-11-19T08:24:10.045Z,4.03
2017-11-19T08:25:16.191Z,4.02
2017-11-19T08:26:22.328Z,4.03
2017-11-19T08:27:29.042Z,4.03
2017-11-19T08:28:34.696Z,4.03
2017-11-19T08:29:40.761Z,4.03
2017-11-19T08:30:46.819Z,4.03
2017-11-19T08:31:52.965Z,4.03
2017-11-19T08:32:59.186Z,4.03
2017-11-19T08:34:05.212Z,4.03
2017-11-19T08:35:11.944Z,4.03
2017-11-19T08:36:18.527Z,4.03
2017-11-19T08:37:23.626Z,4.03
2017-11-19T08:38:29.781Z,4.03
2017-11-19T08:39:35.920Z,4.03
2017-11-19T08:40:42.016Z,4.03
2017-11-19T08:41:48.139Z,4.03
2017-11-19T08:42:54.377Z,4.03
2017-11-19T08:44:00.457Z,4.03
2017-11-19T08:45:07.386Z,4.02
2017-11-19T08:46:12.739Z,4.03
2017-11-19T08:47:18.819Z,4.03
2017-11-19T08:48:25.098Z,4.03
2017-11-19T08:49:31.101Z,4.03
2017-11-19T08:50:37.296Z,4.03
2017-11-19T08:51:43.378Z,4.03
2017-11-19T08:52:49.535Z,4.03
2017-11-19T08:53:56.372Z,4.03
2017-11-19T08:55:01.789Z,4.03
2017-11-19T08:56:08.447Z,4.03
2017-11-19T08:57:14.194Z,4.03
2017-11-19T08:58:20.367Z,4.03
2017-11-19T08:59:26.920Z,4.03
2017-11-19T09:00:32.787Z,4.03
2017-11-19T09:01:38.633Z,4.03
2017-11-19T09:02:44.771Z,4.03
2017-11-19T09:03:50.947Z,4.03
2017-11-19T09:04:57.169Z,4.03
2017-11-19T09:06:03.225Z,4.03
2017-11-19T09:07:09.353Z,4.03
2017-11-19T09:08:16.063Z,4.03
2017-11-19T09:09:21.637Z,4.03
2017-11-19T09:10:27.785Z,4.03
2017-11-19T09:11:34.528Z,4.03
2017-11-19T09:12:40.153Z,4.03
2017-11-19T09:13:46.240Z,4.03
2017-11-19T09:14:52.374Z,4.03
2017-11-19T09:15:58.553Z,4.03
2017-11-19T09:17:04.823Z,4.03
2017-11-19T09:18:11.420Z,4.03
2017-11-19T09:19:16.986Z,4.03
2017-11-19T09:20:23.133Z,4.03
2017-11-19T09:21:29.580Z,4.03
2017-11-19T09:22:35.581Z,4.03
2017-11-19T09:23:42.168Z,4.03
2017-11-19T09:24:48.397Z,4.03
2017-11-19T09:25:54.035Z,4.03
2017-11-19T09:27:00.072Z,4.03
2017-11-19T09:28:06.266Z,4.04
2017-11-19T09:29:12.429Z,4.04
2017-11-19T09:30:18.648Z,4.04
2017-11-19T09:31:24.974Z,4.04
2017-11-19T09:32:30.883Z,4.04
2017-11-19T09:33:37.129Z,4.04
2017-11-19T09:34:43.348Z,4.03
2017-11-19T09:35:50.010Z,4.04
2017-11-19T09:36:55.784Z,4.03
2017-11-19T09:38:01.860Z,4.04
2017-11-19T09:39:07.981Z,4.04
2017-11-19T09:40:14.761Z,4.04
2017-11-19T09:41:20.288Z,4.04
2017-11-19T09:42:26.552Z,4.04
2017-11-19T09:43:32.625Z,4.04
2017-11-19T09:44:38.804Z,4.04
2017-11-19T09:45:44.994Z,4.04
2017-11-19T09:46:51.204Z,4.05
2017-11-19T09:47:57.998Z,4.05
2017-11-19T09:49:03.724Z,4.04
2017-11-19T09:50:09.762Z,4.04
2017-11-19T09:51:17.127Z,4.04
2017-11-19T09:52:22.170Z,4.04
2017-11-19T09:53:28.369Z,4.04
2017-11-19T09:54:34.674Z,4.04
2017-11-19T09:55:40.914Z,4.04
2017-11-19T09:56:46.999Z,4.04
2017-11-19T09:57:53.169Z,4.04
2017-11-19T09:58:59.532Z,4.05
2017-11-19T10:00:06.181Z,4.05
2017-11-19T10:01:11.833Z,4.07
2017-11-19T10:02:18.157Z,4.07
2017-11-19T10:03:24.137Z,4.08
2017-11-19T10:04:30.455Z,4.08
2017-11-19T10:05:36.493Z,4.07
2017-11-19T10:06:42.786Z,4.08
2017-11-19T10:07:48.896Z,4.08
2017-11-19T10:08:55.088Z,4.08
2017-11-19T10:10:01.417Z,4.08
2017-11-19T10:11:07.452Z,4.08
2017-11-19T10:12:14.789Z,4.08
2017-11-19T10:13:19.902Z,4.09
2017-11-19T10:14:26.023Z,4.09
2017-11-19T10:15:32.307Z,4.09
2017-11-19T10:16:38.525Z,4.09
2017-11-19T10:17:44.725Z,4.08
2017-11-19T10:18:50.932Z,4.08
2017-11-19T10:19:56.998Z,4.09
2017-11-19T10:21:03.204Z,4.08
2017-11-19T10:22:09.416Z,4.07
2017-11-19T10:23:15.850Z,4.07
2017-11-19T10:24:21.789Z,4.07
2017-11-19T10:25:28.585Z,4.07
2017-11-19T10:26:34.220Z,4.07
2017-11-19T10:27:41.246Z,4.07
2017-11-19T10:28:46.661Z,4.07
2017-11-19T10:29:52.885Z,4.07
2017-11-19T10:30:59.210Z,4.09
2017-11-19T10:32:05.326Z,4.07
2017-11-19T10:33:11.576Z,4.07
2017-11-19T10:34:17.869Z,4.10
2017-11-19T10:35:24.122Z,4.08
2017-11-19T10:36:30.299Z,4.09
2017-11-19T10:37:36.515Z,4.08
2017-11-19T10:38:42.771Z,4.07
2017-11-19T10:39:49.014Z,4.09
2017-11-19T10:40:55.390Z,4.09
2017-11-19T10:42:01.479Z,4.08
2017-11-19T10:43:08.004Z,4.08
2017-11-19T10:44:14.153Z,4.08
2017-11-19T10:45:20.245Z,4.08
2017-11-19T10:46:26.486Z,4.08
2017-11-19T10:47:32.742Z,4.08
2017-11-19T10:48:39.016Z,4.07
2017-11-19T10:49:45.243Z,4.07
2017-11-19T10:50:51.485Z,4.07
2017-11-19T10:51:57.824Z,4.09
2017-11-19T10:53:03.971Z,4.08
2017-11-19T10:54:10.798Z,4.08
2017-11-19T10:55:16.451Z,4.08
2017-11-19T10:56:22.855Z,4.08
2017-11-19T10:57:28.942Z,4.08
2017-11-19T10:58:36.039Z,4.08
2017-11-19T10:59:41.602Z,4.08
2017-11-19T11:00:47.782Z,4.08
2017-11-19T11:01:53.990Z,4.08
2017-11-19T11:03:00.840Z,4.08
2017-11-19T11:04:06.571Z,4.08
2017-11-19T11:05:12.818Z,4.08
2017-11-19T11:06:19.153Z,4.08
2017-11-19T11:07:25.401Z,4.08
2017-11-19T11:08:31.756Z,4.07
2017-11-19T11:09:37.940Z,4.08
2017-11-19T11:10:44.339Z,4.08
2017-11-19T11:11:50.519Z,4.08
2017-11-19T11:12:56.744Z,4.08
2017-11-19T11:14:03.215Z,4.08
2017-11-19T11:15:09.384Z,4.08
2017-11-19T11:16:15.595Z,4.08
2017-11-19T11:17:21.903Z,4.08
2017-11-19T11:18:28.212Z,4.07
2017-11-19T11:19:34.687Z,4.08
2017-11-19T11:20:40.856Z,4.07
2017-11-19T11:21:47.724Z,4.08
2017-11-19T11:22:53.481Z,4.08
2017-11-19T11:23:59.852Z,4.08
2017-11-19T11:25:06.155Z,4.08
2017-11-19T11:26:12.534Z,4.07
2017-11-19T11:27:18.893Z,4.08
2017-11-19T11:28:25.251Z,4.08
2017-11-19T11:29:31.515Z,4.08
2017-11-19T11:30:37.867Z,4.08
2017-11-19T11:31:44.796Z,4.08
2017-11-19T11:32:51.590Z,4.08
2017-11-19T11:33:56.925Z,4.08
2017-11-19T11:35:03.202Z,4.08
2017-11-19T11:36:10.142Z,4.08
2017-11-19T11:37:15.907Z,4.08
2017-11-19T11:38:22.418Z,4.08
2017-11-19T11:39:29.230Z,4.08
2017-11-19T11:40:35.076Z,4.07
2017-11-19T11:41:41.479Z,4.08
2017-11-19T11:42:48.049Z,4.07
2017-11-19T11:43:54.295Z,4.08
2017-11-19T11:45:00.971Z,4.08
2017-11-19T11:46:07.127Z,4.08
2017-11-19T11:47:13.603Z,4.08
2017-11-19T11:48:20.576Z,4.07
2017-11-19T11:49:27.005Z,4.08
2017-11-19T11:50:32.882Z,4.08
2017-11-19T11:51:39.415Z,4.08
2017-11-19T11:52:46.388Z,4.08
2017-11-19T11:53:52.836Z,4.08
2017-11-19T11:54:58.718Z,4.08
2017-11-19T11:56:05.245Z,4.08
2017-11-19T11:57:11.734Z,4.08
2017-11-19T11:58:18.268Z,4.08
2017-11-19T11:59:24.650Z,4.08
2017-11-19T12:00:31.645Z,4.08
2017-11-19T12:01:37.570Z,4.08
2017-11-19T12:02:43.938Z,4.08
2017-11-19T12:03:50.390Z,4.08
2017-11-19T12:04:57.107Z,4.08
2017-11-19T12:06:03.324Z,4.08
2017-11-19T12:07:09.608Z,4.08
2017-11-19T12:08:16.029Z,4.08
2017-11-19T12:09:22.379Z,4.08
2017-11-19T12:10:28.834Z,4.08
2017-11-19T12:11:35.598Z,4.08
2017-11-19T12:12:41.509Z,4.08
2017-11-19T12:13:47.758Z,4.10
2017-11-19T12:14:54.212Z,4.08
2017-11-19T12:16:00.552Z,4.09
2017-11-19T12:17:06.857Z,4.10
2017-11-19T12:18:13.120Z,4.09
2017-11-19T12:19:19.466Z,4.10
2017-11-19T12:20:25.834Z,4.09
2017-11-19T12:21:32.122Z,4.09
2017-11-19T12:22:38.483Z,4.09
2017-11-19T12:23:45.474Z,4.08
2017-11-19T12:24:51.253Z,4.08
2017-11-19T12:25:57.597Z,4.08
2017-11-19T12:27:04.261Z,4.08
2017-11-19T12:28:11.014Z,4.08
2017-11-19T12:29:16.781Z,4.08
2017-11-19T12:30:23.237Z,4.08
2017-11-19T12:31:29.601Z,4.07
2017-11-19T12:32:36.120Z,4.08
2017-11-19T12:33:42.473Z,4.07
2017-11-19T12:34:48.930Z,4.08
2017-11-19T12:35:55.197Z,4.07
2017-11-19T12:37:01.581Z,4.07
2017-11-19T12:38:07.993Z,4.07
2017-11-19T12:39:14.384Z,4.07
2017-11-19T12:40:20.775Z,4.07
2017-11-19T12:41:27.216Z,4.07
2017-11-19T12:42:33.673Z,4.07
2017-11-19T12:43:39.997Z,4.07
2017-11-19T12:44:46.545Z,4.07
2017-11-19T12:45:52.811Z,4.07
2017-11-19T12:46:59.213Z,4.07
2017-11-19T12:48:05.644Z,4.07
2017-11-19T12:49:12.010Z,4.07
2017-11-19T12:50:18.460Z,4.07
2017-11-19T12:51:24.783Z,4.07
2017-11-19T12:52:31.345Z,4.07
2017-11-19T12:53:37.491Z,4.07
2017-11-19T12:54:44.468Z,4.07
2017-11-19T12:55:50.220Z,4.07
2017-11-19T12:56:56.588Z,4.07
2017-11-19T12:58:02.914Z,4.07
2017-11-19T12:59:09.274Z,4.07
2017-11-19T13:00:15.608Z,4.07
2017-11-19T13:01:22.308Z,4.07
2017-11-19T13:02:28.474Z,4.07
2017-11-19T13:03:34.700Z,4.07
2017-11-19T13:04:41.056Z,4.07
2017-11-19T13:05:47.453Z,4.07
2017-11-19T13:06:53.814Z,4.07
2017-11-19T13:08:00.664Z,4.07
2017-11-19T13:09:06.581Z,4.07
2017-11-19T13:10:12.862Z,4.07
2017-11-19T13:11:19.274Z,4.07
2017-11-19T13:12:25.876Z,4.07
2017-11-19T13:13:31.855Z,4.07
2017-11-19T13:14:38.190Z,4.07
2017-11-19T13:15:44.616Z,4.07
2017-11-19T13:16:51.153Z,4.07
2017-11-19T13:17:57.212Z,4.07
2017-11-19T13:19:03.684Z,4.07
2017-11-19T13:20:09.924Z,4.07
2017-11-19T13:21:16.325Z,4.07
2017-11-19T13:22:22.649Z,4.07
2017-11-19T13:23:29.545Z,4.07
2017-11-19T13:24:35.389Z,4.07
2017-11-19T13:25:41.744Z,4.07
2017-11-19T13:26:48.016Z,4.07
2017-11-19T13:27:54.381Z,4.07
2017-11-19T13:29:00.813Z,4.07
2017-11-19T13:30:07.247Z,4.07
2017-11-19T13:31:14.109Z,4.07
2017-11-19T13:32:19.897Z,4.07
2017-11-19T13:33:26.313Z,4.07
2017-11-19T13:34:32.625Z,4.07
2017-11-19T13:35:39.056Z,4.07
2017-11-19T13:36:45.414Z,4.07
2017-11-19T13:37:51.805Z,4.07
2017-11-19T13:38:58.185Z,4.07
2017-11-19T13:40:04.539Z,4.07
2017-11-19T13:41:10.904Z,4.07
2017-11-19T13:42:17.305Z,4.07
2017-11-19T13:43:23.720Z,4.07
2017-11-19T13:44:29.961Z,4.07
2017-11-19T13:45:36.301Z,4.07
2017-11-19T13:46:42.721Z,4.07
2017-11-19T13:47:49.089Z,4.07
2017-11-19T13:48:55.291Z,4.07
2017-11-19T13:50:01.754Z,4.07
2017-11-19T13:51:08.109Z,4.07
2017-11-19T13:52:14.250Z,4.07
2017-11-19T13:53:20.925Z,4.07
2017-11-19T13:54:27.073Z,4.07
2017-11-19T13:55:33.232Z,4.07
2017-11-19T13:56:39.613Z,4.07
2017-11-19T13:57:45.948Z,4.07
2017-11-19T13:58:52.268Z,4.07
2017-11-19T13:59:58.683Z,4.07
2017-11-19T14:01:05.037Z,4.07
2017-11-19T14:02:11.467Z,4.07
2017-11-19T14:03:17.735Z,4.07
2017-11-19T14:04:24.182Z,4.06
2017-11-19T14:05:30.420Z,4.07
2017-11-19T14:06:37.332Z,4.07
2017-11-19T14:07:43.116Z,4.07
2017-11-19T14:08:49.543Z,4.07
2017-11-19T14:09:55.954Z,4.07
2017-11-19T14:11:02.134Z,4.07
2017-11-19T14:12:09.076Z,4.07
2017-11-19T14:13:14.867Z,4.07
2017-11-19T14:14:21.718Z,4.07
2017-11-19T14:15:27.532Z,4.07
2017-11-19T14:16:33.888Z,4.07
2017-11-19T14:17:40.072Z,4.07
2017-11-19T14:18:46.950Z,4.07
2017-11-19T14:19:52.690Z,4.07
2017-11-19T14:20:58.996Z,4.07
2017-11-19T14:22:05.462Z,4.07
2017-11-19T14:23:11.838Z,4.07
2017-11-19T14:24:18.265Z,4.07
2017-11-19T14:25:24.354Z,4.07
2017-11-19T14:26:30.785Z,4.07
2017-11-19T14:27:36.930Z,4.06
2017-11-19T14:28:44.088Z,4.06
2017-11-19T14:29:49.679Z,4.07
2017-11-19T14:30:55.931Z,4.07
2017-11-19T14:32:02.286Z,4.07
2017-11-19T14:33:09.057Z,4.07
2017-11-19T14:34:14.896Z,4.07
2017-11-19T14:35:21.213Z,4.07
2017-11-19T14:36:28.022Z,4.07
2017-11-19T14:37:33.845Z,4.06
2017-11-19T14:38:40.473Z,4.07
2017-11-19T14:39:47.160Z,4.06
2017-11-19T14:40:52.800Z,4.07